Historique des stations

Station météo de Romilly-sur-Aigre

Altitude de la station : 111 m







Données météorologiques pour le 20/06/2021
Date
Heure
Températures Humidité Point de rosée Vitesse
du vent
Direction Rafales Windchill Pression Pluviométrie
Cumul
Date
Heure
Températures Humidité Point de rosée Vitesse
du vent
Direction Rafales Windchill Pression Pluviométrie
Cumul
20/06/2021 09:2817.2 °C92 %15.9 °C3 km/h6 km/h15.91009 hPa34.0 mm
20/06/2021 09:1316.9 °C93 %15.8 °C3 km/hNO6 km/h15.81009 hPa34.0 mm
20/06/2021 08:5816.6 °C93 %15.4 °C5 km/hONO8 km/h15.41009 hPa34.0 mm
20/06/2021 08:4316.4 °C95 %15.6 °C3 km/hOSO6 km/h15.61009 hPa34.0 mm
20/06/2021 08:2816.4 °C95 %15.6 °C3 km/hSO6 km/h15.61009 hPa34.0 mm
20/06/2021 08:1316.1 °C95 %15.3 °C3 km/hSO8 km/h15.31008 hPa34.0 mm
20/06/2021 07:5815.9 °C96 %15.3 °C5 km/hSO8 km/h15.31008 hPa34.0 mm
20/06/2021 07:4315.6 °C96 %14.9 °C5 km/hS8 km/h14.91009 hPa34.0 mm
20/06/2021 07:2815.2 °C97 %14.7 °C6 km/hS10 km/h14.71009 hPa34.0 mm
20/06/2021 07:1314.6 °C97 %14.1 °C5 km/hS10 km/h14.11009 hPa34.0 mm
20/06/2021 06:5814.1 °C96 %13.5 °C6 km/hS11 km/h13.51009 hPa34.0 mm
20/06/2021 06:4313.8 °C96 %13.2 °C6 km/hS13 km/h13.21009 hPa34.0 mm
20/06/2021 06:2813.6 °C95 %12.8 °C3 km/hSSO5 km/h12.81009 hPa34.0 mm
20/06/2021 06:1313.6 °C95 %12.8 °C3 km/hSSO5 km/h12.81009 hPa34.0 mm
20/06/2021 05:5813.7 °C95 %12.9 °C2 km/hSSO5 km/h12.91009 hPa34.0 mm
20/06/2021 05:4313.9 °C95 %13.1 °C-SSO3 km/h13.11009 hPa34.0 mm
20/06/2021 05:2814.1 °C94 %13.2 °C3 km/hSSO6 km/h13.21009 hPa34.0 mm
20/06/2021 05:1314.2 °C94 %13.2 °C2 km/hSSO3 km/h13.21009 hPa34.0 mm
20/06/2021 04:5814.6 °C94 %13.7 °C3 km/hSSO8 km/h13.71009 hPa34.0 mm
20/06/2021 04:4315.1 °C94 %14.1 °C3 km/hSSO6 km/h14.11009 hPa34.0 mm
20/06/2021 04:2815.3 °C94 %14.4 °C5 km/hSO11 km/h14.41009 hPa34.0 mm
20/06/2021 04:1315.5 °C94 %14.5 °C10 km/hO18 km/h14.51009 hPa34.0 mm
20/06/2021 03:5815.8 °C94 %14.8 °C10 km/hO16 km/h14.81009 hPa34.0 mm
20/06/2021 03:4316.0 °C94 %15.0 °C8 km/hO15 km/h15.01009 hPa34.0 mm
20/06/2021 03:2816.3 °C94 %15.3 °C6 km/hOSO13 km/h15.31009 hPa34.0 mm
20/06/2021 03:1316.4 °C95 %15.6 °C10 km/hSO15 km/h15.61010 hPa34.0 mm
20/06/2021 02:5816.6 °C94 %15.6 °C8 km/hOSO19 km/h15.61010 hPa34.0 mm
20/06/2021 02:4316.6 °C95 %15.8 °C10 km/hOSO18 km/h15.81009 hPa34.0 mm
20/06/2021 02:2816.7 °C95 %15.9 °C8 km/hSO18 km/h15.91010 hPa34.0 mm
20/06/2021 02:1316.8 °C95 %16.0 °C6 km/hSO15 km/h16.01010 hPa34.0 mm
20/06/2021 01:5816.9 °C95 %16.1 °C8 km/hSO18 km/h16.11010 hPa34.0 mm
20/06/2021 01:4316.9 °C95 %16.1 °C11 km/hSSO19 km/h16.11010 hPa34.0 mm
20/06/2021 01:2817.0 °C95 %16.2 °C10 km/hSSO15 km/h16.21010 hPa34.0 mm
20/06/2021 01:1317.1 °C95 %16.2 °C11 km/hSSO18 km/h16.21009 hPa34.0 mm
20/06/2021 00:5816.9 °C95 %16.1 °C11 km/hSSO19 km/h16.11009 hPa34.0 mm
20/06/2021 00:4316.7 °C95 %15.9 °C10 km/hSSO18 km/h15.91009 hPa34.0 mm
20/06/2021 00:2816.8 °C94 %15.8 °C8 km/hSSO13 km/h15.81009 hPa34.0 mm
20/06/2021 00:1317.0 °C94 %16.0 °C6 km/hSSO10 km/h16.01009 hPa34.0 mm
20/06/2021 00:0117.2 °C95 %16.4 °C5 km/hSSO10 km/h16.41009 hPa34.0 mm


Minima :

Température : 13.6 °C
Humidité : 92 %
Point de rosée : 12.8 °C
Vent moyen : 2 km/h
Windchill : 12.8
Pression atm. : 1008 hPa
Maxima :

Température : 17.2 °C
Humidité : 97 %
Point de rosée : 16.4 °C
Vent moyen : 11 km/h
Windchill : 16.4
Pression atm. : 1010 hPa
Rafales max : 19 km/h
Cumul de pluie sur 24H : 34.0 mm

Romilly-sur-Aigre est une commune du département Eure-et-Loir (28).
La station météorologique du réseau de l'association la plus proche de Romilly-sur-Aigre est celle de Mainvilliers
Site du propriétaire de la station : http://www.sohade.fr



Icône Facebook Association Météo Centre Icône Twitter Association Météo Centre Icône Chaîne Youtube Association Météo Centre Icône contact Association Météo Centre Icône Insta Association Météo Centre